LFKB/BIA METAR and TAF weather

Enter ICAO airport designator
Station Type Date Time Source
LFKB METAR 2019/04/25 16:30 UTC NOAA

LFKB 251630Z AUTO 11006KT CAVOK 18/14 Q1016 NOSIG


Station Type Date Time Source
LFKB Decoded METAR 2019/04/25 16:30 UTC NOAA

Bastia, France (LFKB) 42-33N 009-29E 12M
Apr 25, 2019 - 12:30 PM EDT / 2019.04.25 1630 UTC
Wind: from the ESE (110 degrees) at 7 MPH (6 KT):0
Visibility: greater than 7 mile(s):0
Temperature: 64 F (18 C)
Dew Point: 57 F (14 C)
Relative Humidity: 77%
Pressure (altimeter): 30.00 in. Hg (1016 hPa)
ob: LFKB 251630Z AUTO 11006KT CAVOK 18/14 Q1016 NOSIG
cycle: 16

Station Type Date Time Source
LFKB TAF 2019/04/25 15:51 UTC NOAA

TAF TAF LFKB 251400Z 2515/2615 24005KT 9999 SCT020 BKN100 TX19/2612Z TN11/2603Z PROB40
TEMPO 2521/2606 MIFG BKN014
TEMPO 2610/2615 FEW026TCU

Example: see airport list